createdAt,value
2022-09-12T00:00:42.611Z,4.57
2022-09-12T00:03:09.155Z,4.75
2022-09-12T00:05:44.888Z,4.45
2022-09-12T00:08:12.840Z,6.03
2022-09-12T00:10:41.861Z,5.25
2022-09-12T00:13:08.665Z,4.82
2022-09-12T00:15:42.858Z,5.30
2022-09-12T00:18:15.101Z,5.20
2022-09-12T00:20:43.897Z,5.35
2022-09-12T00:23:10.763Z,5.57
2022-09-12T00:25:55.391Z,5.65
2022-09-12T00:28:21.894Z,5.47
2022-09-12T00:30:49.282Z,3.90
2022-09-12T00:33:17.434Z,4.80
2022-09-12T00:35:49.748Z,4.38
2022-09-12T00:38:17.392Z,8.15
2022-09-12T00:40:44.946Z,4.55
2022-09-12T00:43:29.830Z,4.22
2022-09-12T00:46:05.502Z,4.57
2022-09-12T00:48:37.117Z,4.15
2022-09-12T00:51:03.932Z,3.78
2022-09-12T00:53:30.966Z,4.20
2022-09-12T00:55:58.207Z,3.67
2022-09-12T00:58:54.894Z,3.75
2022-09-12T01:01:21.692Z,3.92
2022-09-12T01:03:49.705Z,3.53
2022-09-12T01:06:24.917Z,4.60
2022-09-12T01:08:54.963Z,3.72
2022-09-12T01:13:49.670Z,4.65
2022-09-12T01:16:16.481Z,3.78
2022-09-12T01:19:13.106Z,3.75
2022-09-12T01:21:54.380Z,3.95
2022-09-12T01:24:34.969Z,4.82
2022-09-12T01:27:13.541Z,3.85
2022-09-12T01:30:04.594Z,4.25
2022-09-12T01:32:52.878Z,3.45
2022-09-12T01:35:22.888Z,5.60
2022-09-12T01:38:37.219Z,3.90
2022-09-12T01:41:28.703Z,3.40
2022-09-12T01:44:04.219Z,4.18
2022-09-12T01:46:49.255Z,3.53
2022-09-12T01:49:26.984Z,3.30
2022-09-12T01:51:57.578Z,7.30
2022-09-12T01:54:37.429Z,5.55
2022-09-12T01:57:12.814Z,5.80
2022-09-12T01:59:45.476Z,3.83
2022-09-12T02:02:28.067Z,4.53
2022-09-12T02:05:08.938Z,5.72
2022-09-12T02:07:53.702Z,5.45
2022-09-12T02:10:32.640Z,3.90
2022-09-12T02:13:12.132Z,3.60
2022-09-12T02:15:48.446Z,3.37
2022-09-12T02:18:18.310Z,4.22
2022-09-12T02:20:49.441Z,3.65
2022-09-12T02:23:23.468Z,4.20
2022-09-12T02:25:54.181Z,3.78
2022-09-12T02:28:29.474Z,3.53
2022-09-12T02:31:14.676Z,3.72
2022-09-12T02:33:54.391Z,3.08
2022-09-12T02:36:40.073Z,3.28
2022-09-12T02:39:06.712Z,3.47
2022-09-12T02:41:33.434Z,7.75
2022-09-12T02:44:00.178Z,5.80
2022-09-12T02:46:33.731Z,4.57
2022-09-12T02:49:00.326Z,2.97
2022-09-12T02:51:27.188Z,6.40
2022-09-12T02:53:56.815Z,2.90
2022-09-12T02:56:28.553Z,2.78
2022-09-12T02:58:59.420Z,2.47
2022-09-12T03:01:43.973Z,5.13
2022-09-12T03:04:40.076Z,3.78
2022-09-12T03:07:26.900Z,2.67
2022-09-12T03:10:02.384Z,3.00
2022-09-12T03:12:35.018Z,3.63
2022-09-12T03:15:40.168Z,3.05
2022-09-12T03:18:24.802Z,3.47
2022-09-12T03:21:00.733Z,5.38
2022-09-12T03:24:24.495Z,6.03
2022-09-12T03:26:58.715Z,3.95
2022-09-12T03:29:27.410Z,4.03
2022-09-12T03:31:56.423Z,7.15
2022-09-12T03:34:24.624Z,6.78
2022-09-12T03:36:51.605Z,5.82
2022-09-12T03:39:18.409Z,3.65
2022-09-12T03:41:44.897Z,3.97
2022-09-12T03:44:11.384Z,3.88
2022-09-12T03:46:37.909Z,4.35
2022-09-12T03:49:04.681Z,5.78
2022-09-12T03:51:31.189Z,6.80
2022-09-12T03:53:57.653Z,17.90
2022-09-12T03:56:24.318Z,17.08
2022-09-12T03:58:50.877Z,8.50
2022-09-12T04:01:19.540Z,9.20
2022-09-12T04:03:48.471Z,11.52
2022-09-12T04:06:16.931Z,5.63
2022-09-12T04:08:44.776Z,5.28
2022-09-12T04:11:14.200Z,9.68
2022-09-12T04:13:42.501Z,6.97
2022-09-12T04:16:10.536Z,4.57
2022-09-12T04:18:37.730Z,5.50
2022-09-12T04:21:13.392Z,6.68
2022-09-12T04:23:40.532Z,6.78
2022-09-12T04:26:07.862Z,4.72
2022-09-12T04:28:36.420Z,5.30
2022-09-12T04:31:06.887Z,5.20
2022-09-12T04:33:37.247Z,6.50
2022-09-12T04:36:09.288Z,5.93
2022-09-12T04:38:36.810Z,4.85
2022-09-12T04:41:12.648Z,4.70
2022-09-12T04:43:39.195Z,4.82
2022-09-12T04:46:07.965Z,5.93
2022-09-12T04:48:34.823Z,5.47
2022-09-12T04:51:14.887Z,5.53
2022-09-12T04:53:42.980Z,5.55
2022-09-12T04:56:11.554Z,4.10
2022-09-12T04:58:38.621Z,4.78
2022-09-12T05:01:19.280Z,4.55
2022-09-12T05:03:47.285Z,4.53
2022-09-12T05:06:19.802Z,4.50
2022-09-12T05:08:46.976Z,5.22
2022-09-12T05:11:16.116Z,4.93
2022-09-12T05:13:42.862Z,6.78
2022-09-12T05:16:11.795Z,4.07
2022-09-12T05:18:38.851Z,4.15
2022-09-12T05:21:08.030Z,3.22
2022-09-12T05:23:36.361Z,3.10
2022-09-12T05:26:04.632Z,4.53
2022-09-12T05:28:35.589Z,2.45
2022-09-12T05:31:13.870Z,2.40
2022-09-12T05:33:42.574Z,1.98
2022-09-12T05:36:17.797Z,3.03
2022-09-12T05:38:45.336Z,3.65
2022-09-12T05:41:24.652Z,7.95
2022-09-12T05:44:00.807Z,2.22
2022-09-12T05:46:29.856Z,3.97
2022-09-12T05:48:58.335Z,4.80
2022-09-12T05:51:27.280Z,3.53
2022-09-12T05:53:59.632Z,5.18
2022-09-12T05:56:28.452Z,2.67
2022-09-12T05:58:59.833Z,2.53
2022-09-12T06:01:28.162Z,8.23
2022-09-12T06:03:57.749Z,5.82
2022-09-12T06:06:25.294Z,2.95
2022-09-12T06:08:54.717Z,2.42
2022-09-12T06:11:23.968Z,2.38
2022-09-12T06:13:53.168Z,2.97
2022-09-12T06:16:22.107Z,2.83
2022-09-12T06:18:56.551Z,1.88
2022-09-12T06:21:24.672Z,4.40
2022-09-12T06:23:51.330Z,1.80
2022-09-12T06:26:21.641Z,3.03
2022-09-12T06:28:48.364Z,2.83
2022-09-12T06:31:20.588Z,2.65
2022-09-12T06:33:54.463Z,2.05
2022-09-12T06:36:30.095Z,3.28
2022-09-12T06:39:02.342Z,2.20
2022-09-12T06:41:31.107Z,2.05
2022-09-12T06:43:58.249Z,3.05
2022-09-12T06:46:25.637Z,3.03
2022-09-12T06:48:52.479Z,1.40
2022-09-12T06:51:20.315Z,2.03
2022-09-12T06:53:50.824Z,1.67
2022-09-12T06:59:00.790Z,1.55
2022-09-12T07:01:30.992Z,1.73
2022-09-12T07:04:00.332Z,1.10
2022-09-12T07:06:32.281Z,2.03
2022-09-12T07:09:01.007Z,2.17
2022-09-12T07:11:36.483Z,1.15
2022-09-12T07:14:04.972Z,1.33
2022-09-12T07:16:32.314Z,1.20
2022-09-12T07:19:03.901Z,1.10
2022-09-12T07:21:30.534Z,3.50
2022-09-12T07:23:59.828Z,1.70
2022-09-12T07:26:29.977Z,1.98
2022-09-12T07:29:12.789Z,1.55
2022-09-12T07:31:51.576Z,3.80
2022-09-12T07:34:18.046Z,1.55
2022-09-12T07:36:44.648Z,1.63
2022-09-12T07:39:11.141Z,2.13
2022-09-12T07:41:38.023Z,2.00
2022-09-12T07:44:07.255Z,1.80
2022-09-12T07:46:34.381Z,0.90
2022-09-12T07:49:01.530Z,2.03
2022-09-12T07:51:30.549Z,2.33
2022-09-12T07:53:57.625Z,1.27
2022-09-12T07:56:29.438Z,1.42
2022-09-12T07:58:57.656Z,0.80
2022-09-12T08:01:24.409Z,2.90
2022-09-12T08:03:55.067Z,1.67
2022-09-12T08:06:24.597Z,4.80
2022-09-12T08:08:52.269Z,1.60
2022-09-12T08:14:58.407Z,2.15
2022-09-12T08:17:24.897Z,1.83
2022-09-12T08:19:51.435Z,1.83
2022-09-12T08:22:19.001Z,4.05
2022-09-12T08:24:45.528Z,2.40
2022-09-12T08:27:12.441Z,2.30
2022-09-12T08:29:38.950Z,3.13
2022-09-12T08:32:05.656Z,2.22
2022-09-12T08:34:32.437Z,2.03
2022-09-12T08:36:59.057Z,2.60
2022-09-12T08:39:25.716Z,2.72
2022-09-12T08:42:04.709Z,2.25
2022-09-12T08:44:56.439Z,2.42
2022-09-12T08:47:35.591Z,2.30
2022-09-12T08:50:08.254Z,1.80
2022-09-12T08:52:34.710Z,1.63
2022-09-12T08:55:02.826Z,1.60
2022-09-12T08:57:29.573Z,2.38
2022-09-12T08:59:56.575Z,2.00
2022-09-12T09:02:40.316Z,2.05
2022-09-12T09:05:24.577Z,1.50
2022-09-12T09:08:03.224Z,3.70
2022-09-12T09:10:53.680Z,1.95
2022-09-12T09:14:16.813Z,2.95
2022-09-12T09:16:46.610Z,2.13
2022-09-12T09:19:21.539Z,4.38
2022-09-12T09:21:57.700Z,1.33
2022-09-12T09:24:52.346Z,1.42
2022-09-12T09:27:40.424Z,2.15
2022-09-12T09:32:41.481Z,1.20
2022-09-12T09:35:40.467Z,1.15
2022-09-12T09:38:34.141Z,1.73
2022-09-12T09:41:39.755Z,1.60
2022-09-12T09:46:38.212Z,1.35
2022-09-12T09:49:07.047Z,1.17
2022-09-12T09:51:39.600Z,2.42
2022-09-12T09:54:15.067Z,2.40
2022-09-12T09:56:42.742Z,2.85
2022-09-12T09:59:16.443Z,1.88
2022-09-12T10:01:52.401Z,1.70
2022-09-12T10:04:23.967Z,1.60
2022-09-12T10:07:02.184Z,2.75
2022-09-12T10:09:33.358Z,1.57
2022-09-12T10:12:19.349Z,2.03
2022-09-12T10:14:58.058Z,2.42
2022-09-12T10:17:33.757Z,1.73
2022-09-12T10:20:20.399Z,1.95
2022-09-12T10:22:49.240Z,1.83
2022-09-12T10:25:19.314Z,1.20
2022-09-12T10:36:04.433Z,1.55
2022-09-12T10:39:52.121Z,1.17
2022-09-12T10:43:08.490Z,2.22
2022-09-12T10:57:35.082Z,1.35
2022-09-12T11:00:30.326Z,2.25
2022-09-12T11:03:11.044Z,1.23
2022-09-12T11:09:35.899Z,1.10
2022-09-12T11:12:36.185Z,1.67
2022-09-12T11:15:29.529Z,1.80
2022-09-12T11:18:27.218Z,1.40
2022-09-12T11:21:12.034Z,1.00
2022-09-12T11:24:04.295Z,1.20
2022-09-12T11:26:52.706Z,1.10
2022-09-12T11:29:38.033Z,2.10
2022-09-12T11:32:22.018Z,1.63
2022-09-12T11:35:13.922Z,1.85
2022-09-12T11:37:46.233Z,1.27
2022-09-12T11:40:50.843Z,1.58
2022-09-12T11:43:29.091Z,1.38
2022-09-12T11:46:01.496Z,1.30
2022-09-12T11:48:40.263Z,2.92
2022-09-12T11:53:44.582Z,1.30
2022-09-12T11:56:18.623Z,1.85
2022-09-12T11:58:51.826Z,0.90
2022-09-12T12:01:56.033Z,1.70
2022-09-12T12:04:30.096Z,1.40
2022-09-12T12:07:04.666Z,2.15
2022-09-12T12:09:31.544Z,1.58
2022-09-12T12:12:03.431Z,1.63
2022-09-12T12:14:45.446Z,0.88
2022-09-12T12:17:47.941Z,1.35
2022-09-12T12:20:20.262Z,1.75
2022-09-12T12:22:54.596Z,1.05
2022-09-12T12:25:37.120Z,2.55
2022-09-12T12:28:06.604Z,2.25
2022-09-12T12:35:04.630Z,1.45
2022-09-12T12:46:44.298Z,1.23
2022-09-12T12:49:26.883Z,1.00
2022-09-12T12:51:53.338Z,1.02
2022-09-12T12:54:49.928Z,1.13
2022-09-12T12:57:22.663Z,1.30
2022-09-12T13:00:08.729Z,2.75
2022-09-12T13:02:41.726Z,1.30
2022-09-12T13:05:24.229Z,1.23
2022-09-12T13:08:05.419Z,2.33
2022-09-12T13:10:32.084Z,1.55
2022-09-12T13:13:03.882Z,1.20
2022-09-12T13:15:36.473Z,1.58
2022-09-12T13:18:26.305Z,2.20
2022-09-12T13:21:14.424Z,1.45
2022-09-12T13:23:41.733Z,2.42
2022-09-12T13:26:14.558Z,1.48
2022-09-12T13:28:41.092Z,1.30
2022-09-12T13:31:14.647Z,1.20
2022-09-12T13:34:01.493Z,1.20
2022-09-12T13:37:21.589Z,1.90
2022-09-12T13:39:55.595Z,1.90
2022-09-12T13:42:40.956Z,2.25
2022-09-12T13:45:19.886Z,1.63
2022-09-12T13:47:51.354Z,1.40
2022-09-12T13:50:26.327Z,2.25
2022-09-12T13:53:05.983Z,1.40
2022-09-12T13:55:37.055Z,1.33
2022-09-12T13:58:04.947Z,1.52
2022-09-12T14:00:34.923Z,2.10
2022-09-12T14:03:21.029Z,1.40
2022-09-12T14:05:56.948Z,2.28
2022-09-12T14:08:23.970Z,2.30
2022-09-12T14:10:51.320Z,2.40
2022-09-12T14:13:25.157Z,3.78
2022-09-12T14:16:00.744Z,1.70
2022-09-12T14:18:32.094Z,1.75
2022-09-12T14:21:26.013Z,1.75
2022-09-12T14:23:55.406Z,1.60
2022-09-12T14:26:23.533Z,2.67
2022-09-12T14:28:51.732Z,1.80
2022-09-12T14:31:31.090Z,2.33
2022-09-12T14:34:12.396Z,2.05
2022-09-12T14:36:50.954Z,2.63
2022-09-12T14:39:29.974Z,2.63
2022-09-12T14:42:13.127Z,2.40
2022-09-12T14:44:42.901Z,2.88
2022-09-12T14:47:22.884Z,1.70
2022-09-12T14:49:53.480Z,2.70
2022-09-12T14:52:32.388Z,1.83
2022-09-12T14:55:29.517Z,3.58
2022-09-12T14:58:18.367Z,2.53
2022-09-12T15:01:02.387Z,5.53
2022-09-12T15:03:44.891Z,2.83
2022-09-12T15:06:31.472Z,2.30
2022-09-12T15:09:11.910Z,2.38
2022-09-12T15:11:38.569Z,2.53
2022-09-12T15:14:15.459Z,3.03
2022-09-12T15:16:42.051Z,3.25
2022-09-12T15:19:08.501Z,2.45
2022-09-12T15:21:35.006Z,2.85
2022-09-12T15:24:01.619Z,1.80
2022-09-12T15:26:30.567Z,2.15
2022-09-12T15:28:57.646Z,2.20
2022-09-12T15:31:24.141Z,2.00
2022-09-12T15:33:50.973Z,1.90
2022-09-12T15:36:20.183Z,2.00
2022-09-12T15:38:47.867Z,2.08
2022-09-12T15:41:20.357Z,2.20
2022-09-12T15:43:47.487Z,2.63
2022-09-12T15:46:16.109Z,2.92
2022-09-12T15:48:43.457Z,1.60
2022-09-12T15:51:15.477Z,1.90
2022-09-12T15:53:42.505Z,1.80
2022-09-12T15:56:09.016Z,1.75
2022-09-12T15:58:36.043Z,2.30
2022-09-12T16:01:02.603Z,1.90
2022-09-12T16:03:30.092Z,1.83
2022-09-12T16:06:01.749Z,2.88
2022-09-12T18:14:10.441Z,4.65
2022-09-12T18:16:40.170Z,4.15
2022-09-12T18:19:06.645Z,4.22
2022-09-12T18:21:34.195Z,11.05
2022-09-12T18:26:29.070Z,13.27
2022-09-12T18:28:56.091Z,11.95
2022-09-12T18:31:24.382Z,9.27
2022-09-12T18:33:51.742Z,7.85
2022-09-12T18:36:19.118Z,6.45
2022-09-12T18:38:45.907Z,5.90
2022-09-12T18:41:21.189Z,12.20
2022-09-12T18:43:47.986Z,7.78
2022-09-12T18:46:17.384Z,10.68
2022-09-12T18:48:45.134Z,10.57
2022-09-12T18:51:16.904Z,9.80
2022-09-12T18:53:47.874Z,8.65
2022-09-12T18:56:14.651Z,8.15
2022-09-12T18:58:42.918Z,13.75
2022-09-12T19:01:13.807Z,10.20
2022-09-12T19:03:40.733Z,8.13
2022-09-12T19:06:27.808Z,8.45
2022-09-12T19:08:55.571Z,5.55
2022-09-12T19:11:23.496Z,6.07
2022-09-12T19:13:52.302Z,5.45
2022-09-12T19:16:21.701Z,5.13
2022-09-12T19:18:49.863Z,6.30
2022-09-12T19:21:22.463Z,6.40
2022-09-12T19:23:49.455Z,16.42
2022-09-12T19:26:17.550Z,27.67
2022-09-12T19:28:45.366Z,40.30
2022-09-12T19:31:14.962Z,30.45
2022-09-12T19:33:42.047Z,23.80
2022-09-12T19:36:33.693Z,18.27
2022-09-12T19:38:58.958Z,20.98
2022-09-12T19:41:25.789Z,14.50
2022-09-12T19:43:52.323Z,9.25
2022-09-12T19:46:20.979Z,8.52
2022-09-12T19:48:48.517Z,13.80
2022-09-12T19:51:16.688Z,12.15
2022-09-12T19:53:43.722Z,8.02
2022-09-12T19:56:13.974Z,11.57
2022-09-12T19:58:43.299Z,8.18
2022-09-12T20:01:17.430Z,9.00
2022-09-12T20:03:45.191Z,7.38
2022-09-12T20:06:14.762Z,8.57
2022-09-12T20:08:45.087Z,19.15
2022-09-12T20:11:14.111Z,23.48
2022-09-12T20:13:41.430Z,20.30
2022-09-12T20:16:20.354Z,13.40
2022-09-12T20:21:21.824Z,9.38
2022-09-12T20:23:48.483Z,6.90
2022-09-12T20:26:14.997Z,8.02
2022-09-12T20:28:42.069Z,5.97
2022-09-12T20:31:12.701Z,6.80
2022-09-12T20:33:39.862Z,8.13
2022-09-12T20:36:09.545Z,7.57
2022-09-12T20:38:36.798Z,7.43
2022-09-12T20:41:06.492Z,5.82
2022-09-12T20:43:33.484Z,7.90
2022-09-12T20:46:00.234Z,6.53
2022-09-12T20:48:26.865Z,6.72
2022-09-12T20:50:53.467Z,6.45
2022-09-12T20:53:20.285Z,7.53
2022-09-12T20:55:51.545Z,7.80
2022-09-12T20:58:19.505Z,7.50
2022-09-12T21:00:46.994Z,11.35
2022-09-12T21:03:14.686Z,11.73
2022-09-12T21:05:45.459Z,15.27
2022-09-12T21:08:13.187Z,9.10
2022-09-12T21:10:45.866Z,8.50
2022-09-12T21:13:13.373Z,7.15
2022-09-12T21:15:41.162Z,8.02
2022-09-12T21:18:08.020Z,8.57
2022-09-12T21:20:35.030Z,8.20
2022-09-12T21:23:02.250Z,9.98
2022-09-12T21:25:30.004Z,11.07
2022-09-12T21:27:56.618Z,13.60
2022-09-12T21:30:23.153Z,12.98
2022-09-12T21:32:49.658Z,12.27
2022-09-12T21:35:16.268Z,11.75
2022-09-12T21:37:43.179Z,13.80
2022-09-12T21:40:11.037Z,14.75
2022-09-12T21:42:37.548Z,12.13
2022-09-12T21:45:05.114Z,9.85
2022-09-12T21:47:31.627Z,9.13
2022-09-12T21:49:58.475Z,11.13
2022-09-12T21:52:25.264Z,7.22
2022-09-12T21:54:51.850Z,6.72
2022-09-12T21:57:18.324Z,8.00
2022-09-12T21:59:44.894Z,6.60
2022-09-12T22:02:12.428Z,6.95
2022-09-12T22:04:40.088Z,7.55
2022-09-12T22:07:06.770Z,7.82
2022-09-12T22:09:34.430Z,6.95
2022-09-12T22:12:04.253Z,7.57
2022-09-12T22:14:30.832Z,8.20
2022-09-12T22:17:01.164Z,7.90
2022-09-12T22:19:27.731Z,6.82
2022-09-12T22:22:12.527Z,9.38
2022-09-12T22:24:39.124Z,6.30
2022-09-12T22:27:06.720Z,6.85
2022-09-12T22:29:34.353Z,7.07
2022-09-12T22:32:00.965Z,6.75
2022-09-12T22:34:28.447Z,6.78
2022-09-12T22:36:55.720Z,6.82
2022-09-12T22:39:22.711Z,7.35
2022-09-12T22:41:49.283Z,11.45
2022-09-12T22:44:17.777Z,8.48
2022-09-12T22:46:45.036Z,6.05
2022-09-12T22:49:11.652Z,7.00
2022-09-12T22:51:39.103Z,6.18
2022-09-12T22:54:06.318Z,6.93
2022-09-12T22:56:33.302Z,7.82
2022-09-12T22:58:59.811Z,7.28
2022-09-12T23:01:26.567Z,6.57
2022-09-12T23:03:53.270Z,8.00
2022-09-12T23:06:20.036Z,6.78
2022-09-12T23:08:46.724Z,7.25
2022-09-12T23:11:16.024Z,6.18
2022-09-12T23:13:45.282Z,7.37
2022-09-12T23:16:18.648Z,7.87
2022-09-12T23:18:45.869Z,6.15
2022-09-12T23:21:13.616Z,6.35
2022-09-12T23:23:40.840Z,6.72
2022-09-12T23:26:10.865Z,6.32
2022-09-12T23:28:39.159Z,5.57
2022-09-12T23:31:07.567Z,7.03
2022-09-12T23:33:34.148Z,6.38
2022-09-12T23:36:07.689Z,6.18
2022-09-12T23:38:36.314Z,8.18
2022-09-12T23:41:04.808Z,5.65
2022-09-12T23:43:31.748Z,6.40
2022-09-12T23:45:58.757Z,6.00
2022-09-12T23:48:25.272Z,6.18
2022-09-12T23:50:52.915Z,7.20
2022-09-12T23:53:21.488Z,7.18
2022-09-12T23:55:48.928Z,7.68
2022-09-12T23:58:16.055Z,8.57
